Time;durP1;ratioP1;P1;durP2;ratioP2;P2;SDS_P1;SDS_P2;PMS_P1;PMS_P2;Temp;Humidity;BMP_temperature;BMP_pressure;BME280_temperature;BME280_humidity;BME280_pressure;Samples;Min_cycle;Max_cycle;Signal;HPM_P1;HPM_P2
2022/05/03 00:01:55;;;;;;;9.37;8.07;;;12.30;99.90;;;;;;5063908;28;20506;-42
2022/05/03 00:04:53;;;;;;;11.73;8.37;;;12.30;99.90;;;;;;5068804;28;20454;-42
2022/05/03 00:07:34;;;;;;;8.97;8.07;;;12.30;99.90;;;;;;5069020;28;20420;-43
2022/05/03 00:10:11;;;;;;;12.27;8.20;;;12.20;99.90;;;;;;5068355;28;20418;-43
2022/05/03 00:12:44;;;;;;;9.40;8.07;;;12.20;99.90;;;;;;5060714;28;20442;-42
2022/05/03 00:15:12;;;;;;;10.30;8.40;;;12.20;99.90;;;;;;5072615;28;20507;-43
2022/05/03 00:17:40;;;;;;;8.83;7.93;;;12.10;99.90;;;;;;5087173;28;20805;-43
2022/05/03 00:20:06;;;;;;;8.50;7.67;;;12.10;99.90;;;;;;5081550;28;20430;-43
2022/05/03 00:22:32;;;;;;;9.10;8.07;;;12.10;99.90;;;;;;5069011;28;20426;-43
2022/05/03 00:24:59;;;;;;;8.47;7.57;;;12.10;99.90;;;;;;5068712;28;20981;-43
2022/05/03 00:27:26;;;;;;;8.63;7.83;;;12.10;99.90;;;;;;5056569;28;20523;-42
2022/05/03 00:29:54;;;;;;;10.50;7.67;;;12.10;99.90;;;;;;5067872;28;20460;-42
2022/05/03 00:32:23;;;;;;;9.03;7.50;;;12.10;99.90;;;;;;5068536;28;20415;-43
2022/05/03 00:34:50;;;;;;;10.50;8.10;;;12.00;99.90;;;;;;5068686;28;20498;-43
2022/05/03 00:37:16;;;;;;;10.27;7.60;;;12.00;99.90;;;;;;5068500;28;20419;-43
2022/05/03 00:39:42;;;;;;;8.13;7.33;;;12.00;99.90;;;;;;5068231;28;20459;-43
2022/05/03 00:42:13;;;;;;;8.80;7.30;;;11.90;99.90;;;;;;5058454;28;20788;-42
2022/05/03 00:45:01;;;;;;;9.20;7.73;;;11.80;99.90;;;;;;5068166;28;20486;-42
2022/05/03 00:47:53;;;;;;;7.97;7.17;;;11.90;99.90;;;;;;5069417;28;20427;-42
2022/05/03 00:50:44;;;;;;;8.00;7.30;;;11.90;99.90;;;;;;5070443;28;20993;-43
2022/05/03 00:53:18;;;;;;;12.53;8.60;;;11.90;99.90;;;;;;5072463;28;20973;-42
2022/05/03 00:56:05;;;;;;;7.60;6.40;;;11.90;99.90;;;;;;5072567;28;20434;-43
2022/05/03 00:58:50;;;;;;;9.07;8.07;;;11.90;99.90;;;;;;5064165;28;20419;-43
2022/05/03 01:01:32;;;;;;;10.80;7.20;;;11.70;99.90;;;;;;5071436;28;20411;-42
2022/05/03 01:04:06;;;;;;;8.60;7.70;;;11.60;99.90;;;;;;5072114;28;20465;-42
2022/05/03 01:06:37;;;;;;;9.10;7.83;;;11.50;99.90;;;;;;5072128;28;20509;-43
2022/05/03 01:09:09;;;;;;;8.70;6.80;;;11.40;99.90;;;;;;5072193;28;20801;-42
2022/05/03 01:12:00;;;;;;;8.53;7.50;;;11.50;99.90;;;;;;5068214;28;20431;-43
2022/05/03 01:15:06;;;;;;;8.67;7.57;;;11.50;99.90;;;;;;5086072;28;20492;-43
2022/05/03 01:17:45;;;;;;;9.90;8.00;;;11.50;99.90;;;;;;5071694;28;20426;-42
2022/05/03 01:20:30;;;;;;;10.50;7.40;;;11.50;99.90;;;;;;5071450;28;20411;-42
2022/05/03 01:23:20;;;;;;;10.40;7.47;;;11.40;99.90;;;;;;5075471;28;20535;-42
2022/05/03 01:25:46;;;;;;;8.53;7.00;;;11.50;99.90;;;;;;5071744;28;20411;-41
2022/05/03 01:28:31;;;;;;;9.40;7.60;;;11.40;99.90;;;;;;5065753;28;20477;-43
2022/05/03 01:31:12;;;;;;;11.43;8.60;;;11.20;99.90;;;;;;5065022;28;20188;-42
2022/05/03 01:33:45;;;;;;;8.93;7.93;;;11.20;99.90;;;;;;5071594;28;21885;-42
2022/05/03 01:36:15;;;;;;;9.33;7.87;;;11.20;99.90;;;;;;5071655;28;20512;-42
2022/05/03 01:39:16;;;;;;;9.47;7.33;;;11.20;99.90;;;;;;5069983;28;21093;-42
2022/05/03 01:42:03;;;;;;;9.13;7.83;;;11.20;99.90;;;;;;5046344;28;21037;-43
2022/05/03 01:44:50;;;;;;;10.97;8.03;;;11.20;99.90;;;;;;5063640;28;20451;-42
2022/05/03 01:47:18;;;;;;;8.00;7.20;;;11.20;99.90;;;;;;5067839;28;20418;-42
2022/05/03 01:50:21;;;;;;;9.57;7.50;;;11.00;99.90;;;;;;5069107;28;20461;-43
2022/05/03 01:53:02;;;;;;;9.47;7.27;;;11.10;99.90;;;;;;5071469;28;20497;-41
2022/05/03 01:56:05;;;;;;;10.10;8.40;;;11.10;99.90;;;;;;5071316;28;20435;-42
2022/05/03 01:58:45;;;;;;;8.90;7.80;;;10.80;99.90;;;;;;5061403;28;20455;-42
2022/05/03 02:01:37;;;;;;;9.80;8.17;;;10.80;99.90;;;;;;5066094;28;20435;-42
2022/05/03 02:04:24;;;;;;;8.30;7.50;;;10.60;99.90;;;;;;5071176;28;20451;-43
2022/05/03 02:07:21;;;;;;;8.93;7.70;;;10.60;99.90;;;;;;5070129;28;20538;-43
2022/05/03 02:10:01;;;;;;;7.97;7.27;;;10.60;99.90;;;;;;5066396;28;20420;-43
2022/05/03 02:12:27;;;;;;;9.30;8.20;;;10.60;99.90;;;;;;5070175;28;20469;-42
2022/05/03 02:14:55;;;;;;;8.80;7.90;;;10.70;99.90;;;;;;5069342;28;20498;-42
2022/05/03 02:17:30;;;;;;;9.83;7.90;;;10.60;99.90;;;;;;5086253;28;20434;-42
2022/05/03 02:20:15;;;;;;;9.47;8.27;;;10.60;99.90;;;;;;5070065;28;20418;-43
2022/05/03 02:23:05;;;;;;;9.20;7.90;;;10.50;99.90;;;;;;5071538;28;20502;-43
2022/05/03 02:25:49;;;;;;;8.73;7.80;;;10.70;99.90;;;;;;5070604;28;20477;-42
2022/05/03 02:28:53;;;;;;;12.27;7.97;;;10.40;99.90;;;;;;5059013;28;20904;-42
2022/05/03 02:31:26;;;;;;;8.80;6.83;;;10.10;99.90;;;;;;5065092;28;20430;-42
2022/05/03 02:34:03;;;;;;;7.53;6.83;;;10.30;99.90;;;;;;5070568;28;20418;-42
2022/05/03 02:36:35;;;;;;;8.43;7.30;;;10.10;99.90;;;;;;5070445;28;20766;-43
2022/05/03 02:39:06;;;;;;;8.40;7.50;;;10.10;99.90;;;;;;5070254;28;20414;-41
2022/05/03 02:41:36;;;;;;;8.60;7.70;;;10.20;99.90;;;;;;5069576;28;20415;-41
2022/05/03 02:44:06;;;;;;;8.50;7.27;;;10.20;99.90;;;;;;5061821;28;20521;-41
2022/05/03 02:46:38;;;;;;;8.70;7.80;;;10.50;99.90;;;;;;5070144;28;20423;-42
2022/05/03 02:49:30;;;;;;;8.17;7.33;;;10.10;99.90;;;;;;5068848;28;20508;-42
2022/05/03 02:52:09;;;;;;;9.30;7.40;;;10.00;99.90;;;;;;5049249;28;20514;-42
2022/05/03 02:55:17;;;;;;;8.80;7.20;;;9.90;99.90;;;;;;5070178;28;20450;-43
2022/05/03 02:58:06;;;;;;;7.93;7.03;;;9.90;99.90;;;;;;5041612;28;20474;-43
2022/05/03 03:04:04;;;;;;;8.60;7.23;;;10.10;99.90;;;;;;5069728;28;20450;-43
2022/05/03 03:06:38;;;;;;;7.97;7.20;;;10.00;99.90;;;;;;5069611;28;20447;-42
2022/05/03 03:09:05;;;;;;;8.43;7.20;;;10.10;99.90;;;;;;5069942;28;20443;-43
2022/05/03 03:11:40;;;;;;;7.93;7.23;;;10.30;99.90;;;;;;5068571;28;20431;-43
2022/05/03 03:14:11;;;;;;;9.17;7.57;;;10.00;99.90;;;;;;5059534;28;20514;-43
2022/05/03 03:16:56;;;;;;;9.90;7.97;;;10.20;99.90;;;;;;5069829;28;20472;-42
2022/05/03 03:19:55;;;;;;;8.30;7.23;;;10.00;99.90;;;;;;5069850;28;20422;-41
2022/05/03 03:22:23;;;;;;;7.87;6.57;;;10.10;99.90;;;;;;5069448;28;20463;-43
2022/05/03 03:24:50;;;;;;;8.27;7.37;;;10.10;99.90;;;;;;5069355;28;20464;-42
2022/05/03 03:27:21;;;;;;;9.47;8.10;;;10.10;99.90;;;;;;5066999;28;20463;-42
2022/05/03 03:29:52;;;;;;;8.43;7.30;;;10.10;99.90;;;;;;5064707;28;20412;-42
2022/05/03 03:32:18;;;;;;;9.00;7.20;;;10.00;99.90;;;;;;5069594;28;20816;-42
2022/05/03 03:34:47;;;;;;;11.30;8.20;;;10.20;99.90;;;;;;5069274;28;20423;-42
2022/05/03 03:37:16;;;;;;;8.20;6.93;;;10.10;99.90;;;;;;5069119;28;20414;-42
2022/05/03 03:39:41;;;;;;;9.27;7.53;;;10.20;99.90;;;;;;5068648;28;21087;-42
2022/05/03 03:42:07;;;;;;;8.53;7.57;;;10.10;99.90;;;;;;5069467;28;20521;-43
2022/05/03 03:44:33;;;;;;;7.90;6.90;;;10.20;99.90;;;;;;5061878;28;20266;-43
2022/05/03 03:47:01;;;;;;;9.90;7.00;;;10.10;99.90;;;;;;5069335;28;21091;-42
2022/05/03 03:49:30;;;;;;;8.00;6.83;;;10.20;99.90;;;;;;5067731;28;20476;-42
2022/05/03 03:51:58;;;;;;;9.77;8.03;;;10.20;99.90;;;;;;5068413;28;20537;-42
2022/05/03 03:54:25;;;;;;;10.37;6.47;;;10.10;99.90;;;;;;5069148;28;20522;-43
2022/05/03 03:56:52;;;;;;;9.37;7.10;;;10.00;99.90;;;;;;5069265;28;20459;-42
2022/05/03 03:59:19;;;;;;;7.53;6.67;;;10.00;99.90;;;;;;5056172;28;20946;-42
2022/05/03 04:01:45;;;;;;;9.17;7.23;;;9.80;99.90;;;;;;5068117;28;20460;-42
2022/05/03 04:04:11;;;;;;;7.80;6.50;;;9.70;99.90;;;;;;5068618;28;20451;-43
2022/05/03 04:06:38;;;;;;;7.10;6.40;;;9.80;99.90;;;;;;5069132;28;20424;-42
2022/05/03 04:09:04;;;;;;;8.07;6.10;;;9.70;99.90;;;;;;5068797;28;20434;-41
2022/05/03 04:11:43;;;;;;;8.00;6.50;;;9.80;99.90;;;;;;5068455;28;20464;-43
2022/05/03 04:14:09;;;;;;;7.13;6.43;;;9.80;99.90;;;;;;5054252;28;20573;-43
2022/05/03 04:16:34;;;;;;;9.77;6.43;;;9.70;99.90;;;;;;5067438;28;20526;-42
2022/05/03 04:19:00;;;;;;;7.87;6.27;;;9.70;99.90;;;;;;5068755;28;20193;-42
2022/05/03 04:21:26;;;;;;;6.40;5.80;;;9.70;99.90;;;;;;5068869;28;20196;-42
2022/05/03 04:23:52;;;;;;;6.90;6.20;;;9.70;99.90;;;;;;5073024;28;20261;-42
2022/05/03 04:26:17;;;;;;;8.80;6.73;;;9.70;99.90;;;;;;5072988;28;20204;-42
2022/05/03 04:28:43;;;;;;;8.17;6.30;;;9.70;99.90;;;;;;5063064;28;20189;-42
2022/05/03 04:31:09;;;;;;;8.80;6.70;;;9.60;99.90;;;;;;5067150;28;20669;-42
2022/05/03 04:33:34;;;;;;;8.07;6.63;;;9.60;99.90;;;;;;5072801;28;20223;-43
2022/05/03 04:36:00;;;;;;;7.27;6.40;;;9.60;99.90;;;;;;5072769;28;20192;-43
2022/05/03 04:38:26;;;;;;;6.90;6.00;;;9.90;99.90;;;;;;5073077;28;20317;-42
2022/05/03 04:41:02;;;;;;;6.80;6.10;;;9.90;99.90;;;;;;5071924;28;21012;-42
2022/05/03 04:43:28;;;;;;;6.63;6.00;;;9.80;99.90;;;;;;5065267;28;20817;-42
2022/05/03 04:45:54;;;;;;;6.97;6.27;;;9.80;99.90;;;;;;5067603;28;20415;-43
2022/05/03 04:48:20;;;;;;;8.00;5.93;;;9.70;99.90;;;;;;5066524;28;20447;-42
2022/05/03 04:50:46;;;;;;;7.93;6.33;;;9.80;99.90;;;;;;5071546;28;20791;-43
2022/05/03 04:53:12;;;;;;;7.90;6.30;;;9.60;99.90;;;;;;5071814;28;20186;-42
2022/05/03 04:55:39;;;;;;;6.93;6.20;;;9.70;99.90;;;;;;5072437;28;20419;-43
2022/05/03 04:58:05;;;;;;;8.47;6.33;;;9.60;99.90;;;;;;5065816;28;20456;-40
2022/05/03 05:00:31;;;;;;;6.43;5.83;;;9.60;99.90;;;;;;5069059;28;20492;-42
2022/05/03 05:02:57;;;;;;;7.00;6.30;;;9.60;99.90;;;;;;5072151;28;20427;-43
2022/05/03 05:05:22;;;;;;;6.60;5.57;;;9.70;99.90;;;;;;5072321;28;20181;-41
2022/05/03 05:07:48;;;;;;;7.00;5.90;;;9.70;99.90;;;;;;5071911;28;20203;-43
2022/05/03 05:10:23;;;;;;;7.53;6.07;;;9.60;99.90;;;;;;5071550;28;20191;-43
2022/05/03 05:12:50;;;;;;;6.60;5.93;;;9.90;99.90;;;;;;5068417;28;20192;-43
2022/05/03 05:15:16;;;;;;;8.60;6.13;;;9.70;99.90;;;;;;5070210;28;20415;-43
2022/05/03 05:17:41;;;;;;;7.50;6.20;;;9.70;99.90;;;;;;5071744;28;20960;-42
2022/05/03 05:20:07;;;;;;;7.03;5.60;;;9.80;99.90;;;;;;5071304;28;20447;-42
2022/05/03 05:22:33;;;;;;;6.10;5.50;;;9.80;99.90;;;;;;5069406;28;20203;-43
2022/05/03 05:24:59;;;;;;;7.53;6.10;;;9.80;99.90;;;;;;5071943;28;20532;-43
2022/05/03 05:27:25;;;;;;;7.20;5.67;;;10.30;99.90;;;;;;5073969;28;20189;-42
2022/05/03 05:29:50;;;;;;;9.57;5.80;;;10.20;99.90;;;;;;5067410;28;20207;-42
2022/05/03 05:32:16;;;;;;;7.23;5.80;;;10.20;99.90;;;;;;5071938;28;20177;-42
2022/05/03 05:34:42;;;;;;;6.40;5.80;;;10.20;99.90;;;;;;5070662;28;20196;-43
2022/05/03 05:37:07;;;;;;;9.43;6.70;;;10.20;99.90;;;;;;5071756;28;20188;-42
2022/05/03 05:39:33;;;;;;;7.60;6.33;;;10.40;99.90;;;;;;5071094;28;20189;-43
2022/05/03 05:42:01;;;;;;;7.50;5.80;;;10.30;99.90;;;;;;5070109;28;20254;-43
2022/05/03 05:44:30;;;;;;;9.93;6.57;;;10.40;99.90;;;;;;5060304;28;20569;-43
2022/05/03 05:46:56;;;;;;;6.80;5.97;;;10.40;99.90;;;;;;5071707;28;20549;-43
2022/05/03 05:49:22;;;;;;;9.73;8.77;;;10.50;99.90;;;;;;5066146;28;20560;-42
2022/05/03 05:51:48;;;;;;;7.23;6.50;;;10.80;99.90;;;;;;5069731;28;20449;-43
2022/05/03 05:54:16;;;;;;;8.10;7.23;;;10.60;99.90;;;;;;5071085;28;20502;-42
2022/05/03 05:56:42;;;;;;;9.03;6.47;;;11.00;99.90;;;;;;5071088;28;20446;-42
2022/05/03 05:59:08;;;;;;;9.70;7.67;;;11.00;99.90;;;;;;5066474;28;20443;-42
2022/05/03 06:01:41;;;;;;;6.53;5.90;;;11.20;99.90;;;;;;5069324;28;20484;-42
2022/05/03 06:04:07;;;;;;;7.10;6.43;;;11.40;99.90;;;;;;5070907;28;20521;-42
2022/05/03 06:06:36;;;;;;;7.17;6.30;;;11.70;99.90;;;;;;5067739;28;20463;-42
2022/05/03 06:09:05;;;;;;;7.87;6.43;;;11.70;99.90;;;;;;5070819;28;20411;-42
2022/05/03 06:11:31;;;;;;;12.07;6.50;;;12.00;99.90;;;;;;5070182;28;20806;-42
2022/05/03 06:13:57;;;;;;;7.47;6.67;;;12.10;99.90;;;;;;5063470;28;20443;-43
2022/05/03 06:16:23;;;;;;;9.40;6.83;;;12.30;99.90;;;;;;5067876;28;20423;-42
2022/05/03 06:18:48;;;;;;;7.33;6.20;;;12.50;99.90;;;;;;5066217;28;20875;-42
2022/05/03 06:21:14;;;;;;;11.20;6.20;;;12.50;99.90;;;;;;5068567;28;20529;-43
2022/05/03 06:23:40;;;;;;;7.57;6.10;;;12.70;99.90;;;;;;5068282;28;20775;-43
2022/05/03 06:26:06;;;;;;;10.97;5.83;;;12.80;99.40;;;;;;5064264;28;20197;-43
2022/05/03 06:28:32;;;;;;;6.80;5.97;;;12.90;98.70;;;;;;5069872;28;20494;-42
2022/05/03 06:30:59;;;;;;;12.30;6.27;;;13.00;98.30;;;;;;5075738;28;20420;-42
2022/05/03 06:33:24;;;;;;;7.43;5.70;;;13.00;97.60;;;;;;5079870;28;20427;-43
2022/05/03 06:35:50;;;;;;;8.07;5.20;;;13.20;97.50;;;;;;5082046;28;20434;-42
2022/05/03 06:38:16;;;;;;;7.93;5.60;;;13.20;97.10;;;;;;5077379;28;20216;-43
2022/05/03 06:40:42;;;;;;;6.90;5.30;;;13.30;97.10;;;;;;5069701;28;20196;-43
2022/05/03 06:43:08;;;;;;;6.30;5.40;;;13.40;97.10;;;;;;5070355;28;20201;-42
2022/05/03 06:45:34;;;;;;;6.10;5.50;;;13.40;96.80;;;;;;5063085;28;20260;-42
2022/05/03 06:48:00;;;;;;;6.10;4.93;;;13.50;96.50;;;;;;5070119;28;20503;-43
2022/05/03 06:50:27;;;;;;;7.60;5.77;;;13.60;95.40;;;;;;5085083;28;20184;-42
2022/05/03 06:52:53;;;;;;;9.90;5.80;;;13.60;95.60;;;;;;5069907;28;20419;-42
2022/05/03 06:55:19;;;;;;;5.80;5.20;;;13.70;95.60;;;;;;5070031;28;20918;-43
2022/05/03 06:57:45;;;;;;;6.33;5.40;;;13.80;95.60;;;;;;5087828;28;20459;-43
2022/05/03 07:00:11;;;;;;;7.93;5.87;;;13.80;95.30;;;;;;5074304;28;20212;-42
2022/05/03 07:02:37;;;;;;;6.50;5.10;;;13.90;95.40;;;;;;5080260;28;20200;-43
2022/05/03 07:05:06;;;;;;;7.50;5.53;;;14.00;95.50;;;;;;5093801;28;20462;-42
2022/05/03 07:07:33;;;;;;;5.07;4.57;;;14.10;95.10;;;;;;5084850;28;20407;-43
2022/05/03 07:09:59;;;;;;;5.93;4.50;;;14.10;94.50;;;;;;5076726;28;20423;-43
2022/05/03 07:12:25;;;;;;;6.70;4.80;;;14.10;94.10;;;;;;5069724;28;21081;-42
2022/05/03 07:14:51;;;;;;;8.97;5.23;;;14.00;94.00;;;;;;5059189;28;20428;-42
2022/05/03 07:22:47;;;;;;;6.60;5.17;;;14.10;95.10;;;;;;5068631;28;20429;-42
2022/05/03 07:25:16;;;;;;;6.50;5.73;;;14.20;94.70;;;;;;5069621;28;20462;-42
2022/05/03 07:27:46;;;;;;;6.17;5.20;;;14.20;94.50;;;;;;5069545;28;20191;-42
2022/05/03 07:30:15;;;;;;;7.13;5.30;;;14.30;94.10;;;;;;5056676;28;20440;-43
2022/05/03 07:32:45;;;;;;;5.37;4.77;;;14.30;93.60;;;;;;5068910;28;20522;-40
2022/05/03 07:35:12;;;;;;;6.50;5.47;;;14.40;94.10;;;;;;5076435;28;20422;-42
2022/05/03 07:37:39;;;;;;;5.67;5.17;;;14.40;94.00;;;;;;5085603;28;20435;-43
2022/05/03 07:40:07;;;;;;;6.37;5.77;;;14.50;93.60;;;;;;5087599;28;20488;-42
2022/05/03 07:42:33;;;;;;;8.33;5.63;;;14.50;94.10;;;;;;5089664;28;20877;-42
2022/05/03 07:44:59;;;;;;;7.60;5.77;;;14.50;94.20;;;;;;5072174;28;21202;-41
2022/05/03 07:47:25;;;;;;;7.87;5.10;;;14.60;94.00;;;;;;5066803;28;20474;-42
2022/05/03 07:49:51;;;;;;;7.00;4.30;;;14.50;93.60;;;;;;5068435;28;20968;-43
2022/05/03 07:52:17;;;;;;;5.00;4.60;;;14.40;94.10;;;;;;5069406;28;20350;-42
2022/05/03 07:54:44;;;;;;;5.77;4.70;;;14.30;93.60;;;;;;5069196;28;20193;-43
2022/05/03 07:57:12;;;;;;;5.03;4.53;;;14.30;93.50;;;;;;5068631;28;20476;-43
2022/05/03 07:59:39;;;;;;;4.77;4.03;;;14.30;93.00;;;;;;5063630;28;20592;-43
2022/05/03 08:02:05;;;;;;;4.93;4.27;;;14.30;93.10;;;;;;5066230;28;20518;-43
2022/05/03 08:04:30;;;;;;;5.70;4.40;;;14.20;93.20;;;;;;5068847;28;21126;-42
2022/05/03 08:06:56;;;;;;;5.30;4.23;;;14.20;93.20;;;;;;5070031;28;20188;-43
2022/05/03 08:09:22;;;;;;;4.63;4.10;;;14.30;93.00;;;;;;5067473;28;20754;-43
2022/05/03 08:11:47;;;;;;;3.83;3.37;;;14.20;92.70;;;;;;5068548;28;20203;-42
2022/05/03 08:14:13;;;;;;;4.17;3.80;;;14.20;92.80;;;;;;5066273;28;20657;-42
2022/05/03 08:16:39;;;;;;;5.03;3.80;;;14.30;92.70;;;;;;5067823;28;20240;-41
2022/05/03 08:19:05;;;;;;;5.70;3.57;;;14.30;92.10;;;;;;5074037;28;20200;-41
2022/05/03 08:21:32;;;;;;;3.60;3.13;;;14.30;91.30;;;;;;5067377;28;20276;-43
2022/05/03 08:23:59;;;;;;;4.13;2.83;;;14.30;91.70;;;;;;5067880;28;20545;-42
2022/05/03 08:26:25;;;;;;;4.90;3.60;;;14.40;91.50;;;;;;5068759;28;20419;-41
2022/05/03 08:28:51;;;;;;;4.53;3.53;;;14.40;91.80;;;;;;5068788;28;20425;-43
2022/05/03 08:31:17;;;;;;;4.20;2.80;;;14.40;91.70;;;;;;5060933;28;20264;-42
2022/05/03 08:33:44;;;;;;;3.73;3.40;;;14.30;90.80;;;;;;5068930;28;20446;-40
2022/05/03 08:36:10;;;;;;;3.77;3.20;;;14.40;90.30;;;;;;5050644;28;20195;-43
2022/05/03 08:44:05;;;;;;;8.07;2.80;;;14.60;89.00;;;;;;5068275;28;20477;-42
2022/05/03 08:46:32;;;;;;;3.53;2.30;;;14.60;89.40;;;;;;5073989;28;20431;-41
2022/05/03 08:49:02;;;;;;;4.80;2.60;;;14.60;88.80;;;;;;5068743;28;20197;-43
2022/05/03 08:51:32;;;;;;;5.33;2.30;;;14.70;87.70;;;;;;5055061;28;20427;-42
2022/05/03 08:53:59;;;;;;;8.73;2.43;;;14.70;87.50;;;;;;5068445;28;20881;-43
2022/05/03 08:56:26;;;;;;;2.30;2.10;;;14.80;88.90;;;;;;5068390;28;20443;-42
2022/05/03 08:58:52;;;;;;;3.90;2.73;;;14.90;88.40;;;;;;5084133;28;20928;-43
2022/05/03 09:01:18;;;;;;;3.00;2.50;;;15.00;87.10;;;;;;5058433;28;20434;-40
2022/05/03 09:03:44;;;;;;;2.73;2.10;;;15.10;82.10;;;;;;5068235;28;20501;-42
2022/05/03 09:06:11;;;;;;;3.20;2.40;;;15.20;82.20;;;;;;5068453;28;20870;-41
2022/05/03 09:08:39;;;;;;;3.80;2.90;;;15.20;81.50;;;;;;5069283;28;20886;-41
2022/05/03 09:11:17;;;;;;;4.87;2.80;;;15.30;81.90;;;;;;5071768;28;20532;-43
2022/05/03 09:13:45;;;;;;;3.00;2.23;;;15.40;82.10;;;;;;5070741;28;20802;-43
2022/05/03 09:16:13;;;;;;;2.90;2.67;;;15.40;82.20;;;;;;5058215;28;20447;-42
2022/05/03 09:18:40;;;;;;;2.80;2.40;;;15.50;82.00;;;;;;5071059;28;20431;-43
2022/05/03 09:24:05;;;;;;;4.50;2.90;;;15.80;85.00;;;;;;5059835;28;20471;-42
2022/05/03 09:26:33;;;;;;;4.10;2.80;;;16.00;84.90;;;;;;5071984;28;20423;-42
2022/05/03 09:29:11;;;;;;;3.00;2.33;;;16.10;84.10;;;;;;5071938;28;20995;-42
2022/05/03 09:31:46;;;;;;;3.10;2.40;;;16.30;81.60;;;;;;5072724;28;20469;-43
2022/05/03 09:34:19;;;;;;;3.67;2.70;;;16.40;82.60;;;;;;5070170;28;20414;-43
2022/05/03 09:37:02;;;;;;;2.67;2.20;;;16.50;81.60;;;;;;5071898;28;20423;-43
2022/05/03 09:39:37;;;;;;;3.00;2.40;;;16.70;80.20;;;;;;5071503;28;20995;-43
2022/05/03 09:42:18;;;;;;;5.90;2.87;;;16.80;81.50;;;;;;5071633;28;20427;-42
2022/05/03 09:45:00;;;;;;;3.50;2.90;;;16.90;80.20;;;;;;5067808;28;20496;-43
2022/05/03 09:47:46;;;;;;;6.93;2.80;;;16.90;79.70;;;;;;5070226;28;20542;-43
2022/05/03 09:50:23;;;;;;;3.50;3.00;;;16.90;79.00;;;;;;5070782;28;20422;-42
2022/05/03 09:52:50;;;;;;;3.13;2.83;;;17.00;77.10;;;;;;5070515;28;20415;-43
2022/05/03 09:55:30;;;;;;;3.40;2.30;;;17.10;80.40;;;;;;5071287;28;20423;-43
2022/05/03 09:57:59;;;;;;;3.93;2.60;;;17.20;82.40;;;;;;5071377;28;20798;-43
2022/05/03 10:00:25;;;;;;;5.23;3.43;;;17.30;76.90;;;;;;5063214;28;20478;-42
2022/05/03 10:02:52;;;;;;;2.67;2.47;;;17.30;76.90;;;;;;5066025;28;20431;-42
2022/05/03 10:05:21;;;;;;;3.60;3.30;;;17.40;78.40;;;;;;5071401;28;20790;-43
2022/05/03 10:07:49;;;;;;;3.90;3.00;;;17.40;78.00;;;;;;5071366;28;20780;-43
2022/05/03 10:10:16;;;;;;;6.13;2.90;;;17.50;76.10;;;;;;5070193;28;20487;-42
2022/05/03 10:12:43;;;;;;;4.43;2.60;;;17.60;78.50;;;;;;5071210;28;20427;-42
2022/05/03 10:15:10;;;;;;;3.07;2.60;;;17.60;79.90;;;;;;5082175;28;20440;-43
2022/05/03 10:20:42;;;;;;;4.17;3.30;;;17.80;76.00;;;;;;5069680;28;20427;-42
2022/05/03 10:23:28;;;;;;;5.00;3.50;;;17.80;76.40;;;;;;5064387;28;20837;-43
2022/05/03 10:26:05;;;;;;;3.40;3.10;;;17.70;77.10;;;;;;5070886;28;20423;-42
2022/05/03 10:29:00;;;;;;;6.20;4.20;;;17.80;78.80;;;;;;5086205;28;20502;-42
2022/05/03 10:31:27;;;;;;;4.57;3.60;;;17.90;78.20;;;;;;5054521;28;20443;-43
2022/05/03 10:33:52;;;;;;;4.73;4.13;;;18.00;78.90;;;;;;5070395;28;20432;-43
2022/05/03 10:36:31;;;;;;;4.03;3.63;;;18.00;78.20;;;;;;5070399;28;20843;-42
2022/05/03 10:39:05;;;;;;;4.23;3.77;;;18.10;79.80;;;;;;5070715;28;20191;-42
2022/05/03 10:41:31;;;;;;;4.47;3.87;;;18.30;78.00;;;;;;5069550;28;21044;-42
2022/05/03 10:43:57;;;;;;;5.40;3.93;;;18.30;77.60;;;;;;5070552;28;20486;-41
2022/05/03 10:46:23;;;;;;;4.50;4.10;;;18.30;80.00;;;;;;5059846;28;20479;-42
2022/05/03 10:49:14;;;;;;;4.57;4.17;;;18.40;81.40;;;;;;5070581;28;20196;-43
2022/05/03 10:51:39;;;;;;;7.27;4.50;;;18.40;77.10;;;;;;5058913;28;20461;-43
2022/05/03 10:54:07;;;;;;;5.50;5.00;;;18.50;78.20;;;;;;5070375;28;20427;-42
2022/05/03 10:56:33;;;;;;;4.43;4.00;;;18.50;75.90;;;;;;5069957;28;20205;-43
2022/05/03 10:59:10;;;;;;;5.43;4.90;;;18.50;75.70;;;;;;5070133;28;21433;-43
2022/05/03 11:01:54;;;;;;;5.70;5.20;;;18.40;74.40;;;;;;5059997;28;20485;-42
2022/05/03 11:04:21;;;;;;;6.50;4.90;;;18.50;75.50;;;;;;5067975;28;20455;-43
2022/05/03 11:06:49;;;;;;;6.10;5.50;;;18.50;77.20;;;;;;5070163;28;20423;-42
2022/05/03 11:09:34;;;;;;;4.87;4.37;;;18.60;77.60;;;;;;5084281;28;20422;-41
2022/05/03 11:12:02;;;;;;;5.97;5.10;;;18.60;79.20;;;;;;5085969;28;20425;-42
2022/05/03 11:14:28;;;;;;;7.50;5.57;;;18.80;78.40;;;;;;5088891;28;20434;-41
2022/05/03 11:17:05;;;;;;;5.83;4.70;;;18.90;78.90;;;;;;5065880;28;20437;-42
2022/05/03 11:19:49;;;;;;;7.13;5.00;;;19.10;77.00;;;;;;5069633;28;20191;-43
2022/05/03 11:22:21;;;;;;;5.93;4.47;;;18.90;73.00;;;;;;5063371;28;20514;-42
2022/05/03 11:24:50;;;;;;;5.30;4.80;;;19.00;77.20;;;;;;5069484;28;20459;-41
2022/05/03 11:27:17;;;;;;;5.70;5.10;;;19.00;72.50;;;;;;5069477;28;20979;-42
2022/05/03 11:29:54;;;;;;;6.63;4.60;;;19.00;71.30;;;;;;5068980;28;20419;-42
2022/05/03 11:32:38;;;;;;;4.90;4.40;;;19.10;74.40;;;;;;5060941;28;20458;-40
2022/05/03 11:35:12;;;;;;;5.07;4.57;;;19.10;78.30;;;;;;5068927;28;21075;-43
2022/05/03 11:37:45;;;;;;;5.53;4.50;;;19.20;75.40;;;;;;5069338;28;20878;-43
2022/05/03 11:40:12;;;;;;;6.20;4.90;;;19.20;74.60;;;;;;5068883;28;20428;-42
2022/05/03 11:42:44;;;;;;;5.50;5.00;;;19.30;75.50;;;;;;5067694;28;20932;-43
2022/05/03 11:45:12;;;;;;;5.83;5.23;;;19.30;75.10;;;;;;5078553;28;20466;-42
2022/05/03 11:47:41;;;;;;;5.97;5.47;;;19.40;74.40;;;;;;5056722;28;21926;-42
2022/05/03 11:50:07;;;;;;;5.80;5.30;;;19.50;76.10;;;;;;5068422;28;20506;-42
2022/05/03 11:58:03;;;;;;;5.53;5.13;;;19.40;71.50;;;;;;5057102;28;20451;-43
2022/05/03 12:00:29;;;;;;;7.20;5.33;;;19.30;68.50;;;;;;5066665;28;20497;-42
2022/05/03 12:03:00;;;;;;;5.70;5.10;;;19.30;70.10;;;;;;5058623;28;20451;-43
2022/05/03 12:05:25;;;;;;;7.13;6.27;;;19.20;67.50;;;;;;5067066;28;20470;-42
2022/05/03 12:07:56;;;;;;;6.70;6.10;;;19.00;67.60;;;;;;5069106;28;20427;-42
2022/05/03 12:10:27;;;;;;;6.90;5.80;;;19.10;68.70;;;;;;5068434;28;20188;-42
2022/05/03 12:13:09;;;;;;;7.30;6.20;;;19.10;67.10;;;;;;5069132;28;20423;-42
2022/05/03 12:15:40;;;;;;;6.60;6.00;;;19.10;68.90;;;;;;5068331;28;20426;-43
2022/05/03 12:18:11;;;;;;;6.13;5.63;;;19.10;69.70;;;;;;5057919;28;20454;-43
2022/05/03 12:20:51;;;;;;;6.80;6.20;;;19.00;68.50;;;;;;5067353;28;20443;-40
2022/05/03 12:23:33;;;;;;;7.03;6.13;;;19.00;68.90;;;;;;5067489;28;20431;-43
2022/05/03 12:26:01;;;;;;;7.00;5.93;;;19.00;69.50;;;;;;5068824;28;20441;-42
2022/05/03 12:28:36;;;;;;;5.70;5.10;;;19.00;69.30;;;;;;5068724;28;20439;-43
2022/05/03 12:31:05;;;;;;;6.73;6.13;;;19.10;71.70;;;;;;5064170;28;20439;-42
2022/05/03 12:33:32;;;;;;;6.27;5.47;;;19.20;74.40;;;;;;5063113;28;20506;-42
2022/05/03 12:35:59;;;;;;;5.80;5.20;;;19.30;73.80;;;;;;5068738;28;20537;-42
2022/05/03 12:38:26;;;;;;;6.53;4.83;;;19.40;75.30;;;;;;5068793;28;20419;-42
2022/05/03 12:40:59;;;;;;;6.70;5.90;;;19.60;76.00;;;;;;5067884;28;20522;-42
2022/05/03 12:43:27;;;;;;;6.27;5.77;;;19.70;73.50;;;;;;5071454;28;20887;-42
2022/05/03 12:45:59;;;;;;;6.30;5.70;;;19.80;71.40;;;;;;5070649;28;20430;-42
2022/05/03 12:48:27;;;;;;;7.60;6.60;;;19.70;72.70;;;;;;5066221;28;20460;-43
2022/05/03 12:50:56;;;;;;;6.20;5.60;;;19.70;71.00;;;;;;5071728;28;20425;-43
2022/05/03 12:53:26;;;;;;;6.97;6.23;;;19.70;72.60;;;;;;5072488;28;20419;-42
2022/05/03 12:55:53;;;;;;;7.00;6.30;;;19.80;72.90;;;;;;5072263;28;20419;-42
2022/05/03 12:58:22;;;;;;;7.07;6.47;;;19.90;72.00;;;;;;5072433;28;20469;-42
2022/05/03 13:00:59;;;;;;;6.90;6.30;;;19.80;68.10;;;;;;5071196;28;20572;-43
2022/05/03 13:03:27;;;;;;;7.00;6.40;;;19.80;71.50;;;;;;5068078;28;20430;-43
2022/05/03 13:05:54;;;;;;;8.80;6.30;;;19.80;73.50;;;;;;5071798;28;20415;-43
2022/05/03 13:08:19;;;;;;;7.90;6.10;;;19.80;69.60;;;;;;5072136;28;20468;-42
2022/05/03 13:10:45;;;;;;;9.60;5.87;;;19.70;69.40;;;;;;5071446;28;20422;-42
2022/05/03 13:13:12;;;;;;;6.40;5.80;;;19.60;69.80;;;;;;5072131;28;20224;-42
2022/05/03 13:15:38;;;;;;;6.37;5.77;;;19.60;68.50;;;;;;5072178;28;20513;-42
2022/05/03 13:18:05;;;;;;;5.93;5.33;;;19.60;70.90;;;;;;5063405;28;20431;-42
2022/05/03 13:20:31;;;;;;;6.90;5.53;;;19.60;71.00;;;;;;5071093;28;20938;-43
2022/05/03 13:22:58;;;;;;;5.60;5.10;;;19.70;71.80;;;;;;5070450;28;20423;-43
2022/05/03 13:25:24;;;;;;;5.50;5.00;;;19.80;73.20;;;;;;5071790;28;20216;-42
2022/05/03 13:27:50;;;;;;;4.50;4.10;;;19.90;73.20;;;;;;5071920;28;20407;-43
2022/05/03 13:30:16;;;;;;;6.53;5.60;;;20.00;72.70;;;;;;5071232;28;20196;-43
2022/05/03 13:32:42;;;;;;;6.90;5.47;;;19.90;65.80;;;;;;5063493;28;20906;-42
2022/05/03 13:35:09;;;;;;;6.30;5.50;;;19.90;66.70;;;;;;5071421;28;20518;-43